createdAt,value
2018-02-15T00:00:54.408Z,21.60
2018-02-15T00:03:20.401Z,21.30
2018-02-15T00:05:46.353Z,23.47
2018-02-15T00:08:12.377Z,21.53
2018-02-15T00:10:38.387Z,20.10
2018-02-15T00:13:04.332Z,22.57
2018-02-15T00:15:30.335Z,21.20
2018-02-15T00:17:56.307Z,23.50
2018-02-15T00:20:22.252Z,21.70
2018-02-15T00:22:48.241Z,22.70
2018-02-15T00:25:14.920Z,20.53
2018-02-15T00:27:41.651Z,23.10
2018-02-15T00:30:08.384Z,22.30
2018-02-15T00:32:34.368Z,22.73
2018-02-15T00:35:00.310Z,20.23
2018-02-15T00:37:26.295Z,22.20
2018-02-15T00:39:52.251Z,22.70
2018-02-15T00:42:18.964Z,21.23
2018-02-15T00:44:44.920Z,22.43
2018-02-15T00:47:10.921Z,21.63
2018-02-15T00:49:36.877Z,20.43
2018-02-15T00:52:02.885Z,19.17
2018-02-15T00:54:28.877Z,20.57
2018-02-15T00:56:54.847Z,23.17
2018-02-15T00:59:20.799Z,22.67
2018-02-15T01:01:46.772Z,25.93
2018-02-15T01:04:12.736Z,22.60
2018-02-15T01:06:39.455Z,22.83
2018-02-15T01:09:06.879Z,22.53
2018-02-15T01:11:32.864Z,22.50
2018-02-15T01:13:58.835Z,23.63
2018-02-15T01:16:25.573Z,22.17
2018-02-15T01:18:52.260Z,20.20
2018-02-15T01:21:18.200Z,22.27
2018-02-15T01:23:44.170Z,21.23
2018-02-15T01:26:10.162Z,21.67
2018-02-15T01:28:36.152Z,21.83
2018-02-15T01:31:02.109Z,21.33
2018-02-15T01:33:28.796Z,20.53
2018-02-15T01:35:54.770Z,22.00
2018-02-15T01:38:20.756Z,23.37
2018-02-15T01:40:46.708Z,20.70
2018-02-15T01:43:12.719Z,20.97
2018-02-15T01:45:38.672Z,20.43
2018-02-15T01:48:04.630Z,22.57
2018-02-15T01:50:30.611Z,21.50
2018-02-15T01:52:56.620Z,21.27
2018-02-15T01:55:23.303Z,20.17
2018-02-15T01:57:50.029Z,19.93
2018-02-15T02:00:16.118Z,20.67
2018-02-15T02:02:42.081Z,19.40
2018-02-15T02:05:08.058Z,22.47
2018-02-15T02:07:34.788Z,22.40
2018-02-15T02:10:02.246Z,20.77
2018-02-15T02:12:28.210Z,21.10
2018-02-15T02:14:54.193Z,21.20
2018-02-15T02:17:20.200Z,21.27
2018-02-15T02:19:46.892Z,23.33
2018-02-15T02:22:12.879Z,22.40
2018-02-15T02:24:39.625Z,22.00
2018-02-15T02:27:05.568Z,23.17
2018-02-15T02:29:32.305Z,22.50
2018-02-15T02:31:59.769Z,20.03
2018-02-15T02:34:25.730Z,23.70
2018-02-15T02:36:52.470Z,21.93
2018-02-15T02:39:18.412Z,22.10
2018-02-15T02:41:44.393Z,21.43
2018-02-15T02:44:10.367Z,21.37
2018-02-15T02:46:36.373Z,23.10
2018-02-15T02:49:02.308Z,21.80
2018-02-15T02:51:28.283Z,23.40
2018-02-15T02:53:54.230Z,22.93
2018-02-15T02:56:20.971Z,20.50
2018-02-15T02:58:46.915Z,23.83
2018-02-15T03:01:12.876Z,25.43
2018-02-15T03:03:38.881Z,21.00
2018-02-15T03:06:05.595Z,22.20
2018-02-15T03:08:31.567Z,23.83
2018-02-15T03:10:57.533Z,22.87
2018-02-15T03:13:23.503Z,21.10
2018-02-15T03:15:49.439Z,21.77
2018-02-15T03:18:15.427Z,21.13
2018-02-15T03:20:42.131Z,21.30
2018-02-15T03:23:08.082Z,22.93
2018-02-15T03:25:34.076Z,23.10
2018-02-15T03:28:00.034Z,21.80
2018-02-15T03:30:26.008Z,21.90
2018-02-15T03:32:52.800Z,22.60
2018-02-15T03:35:18.790Z,22.60
2018-02-15T03:37:44.744Z,21.80
2018-02-15T03:40:11.475Z,21.93
2018-02-15T03:42:37.492Z,23.87
2018-02-15T03:45:03.450Z,21.97
2018-02-15T03:47:29.444Z,21.73
2018-02-15T03:49:55.375Z,23.57
2018-02-15T03:52:21.347Z,22.90
2018-02-15T03:54:47.294Z,24.10
2018-02-15T03:57:13.292Z,21.10
2018-02-15T03:59:39.252Z,22.90
2018-02-15T04:02:05.202Z,22.40
2018-02-15T04:04:31.961Z,21.97
2018-02-15T04:06:57.931Z,22.70
2018-02-15T04:09:23.884Z,23.57
2018-02-15T04:11:49.871Z,22.03
2018-02-15T04:14:15.859Z,21.70
2018-02-15T04:16:41.888Z,23.20
2018-02-15T04:19:07.912Z,24.43
2018-02-15T04:21:33.867Z,24.60
2018-02-15T04:23:59.884Z,22.90
2018-02-15T04:26:25.831Z,22.90
2018-02-15T04:28:51.773Z,23.20
2018-02-15T04:31:17.776Z,23.80
2018-02-15T04:33:44.475Z,20.47
2018-02-15T04:36:10.435Z,23.07
2018-02-15T04:38:36.428Z,23.03
2018-02-15T04:41:02.378Z,24.03
2018-02-15T04:43:28.347Z,22.40
2018-02-15T04:45:54.339Z,23.40
2018-02-15T04:48:20.333Z,21.77
2018-02-15T04:50:47.035Z,23.20
2018-02-15T04:53:12.997Z,23.30
2018-02-15T04:55:39.024Z,24.27
2018-02-15T04:58:04.963Z,23.70
2018-02-15T05:00:30.948Z,25.07
2018-02-15T05:02:57.739Z,22.43
2018-02-15T05:05:23.716Z,24.87
2018-02-15T05:07:49.659Z,23.87
2018-02-15T05:10:16.394Z,23.13
2018-02-15T05:12:42.373Z,22.60
2018-02-15T05:15:08.352Z,22.87
2018-02-15T05:17:34.356Z,23.67
2018-02-15T05:20:00.319Z,24.17
2018-02-15T05:22:26.288Z,24.37
2018-02-15T05:24:52.285Z,24.10
2018-02-15T05:27:18.281Z,23.67
2018-02-15T05:29:44.235Z,24.20
2018-02-15T05:32:10.332Z,24.60
2018-02-15T05:34:37.047Z,23.20
2018-02-15T05:37:02.995Z,24.87
2018-02-15T05:39:29.031Z,26.00
2018-02-15T05:41:54.996Z,23.63
2018-02-15T05:44:21.733Z,25.43
2018-02-15T05:46:49.455Z,24.43
2018-02-15T05:49:15.407Z,25.60
2018-02-15T05:51:41.360Z,25.27
2018-02-15T05:54:07.365Z,22.43
2018-02-15T05:56:33.364Z,24.27
2018-02-15T05:58:59.351Z,23.50
2018-02-15T06:01:25.351Z,25.97
2018-02-15T06:03:52.040Z,25.37
2018-02-15T06:06:18.163Z,23.07
2018-02-15T06:08:44.116Z,22.10
2018-02-15T06:11:10.092Z,22.27
2018-02-15T06:13:36.082Z,23.50
2018-02-15T06:16:02.032Z,22.83
2018-02-15T06:18:28.003Z,23.20
2018-02-15T06:20:54.004Z,21.80
2018-02-15T06:23:19.996Z,24.80
2018-02-15T06:25:46.701Z,20.90
2018-02-15T06:28:12.841Z,22.70
2018-02-15T06:30:38.841Z,24.10
2018-02-15T06:33:04.811Z,23.83
2018-02-15T06:35:30.813Z,23.07
2018-02-15T06:37:56.936Z,23.57
2018-02-15T06:40:23.666Z,23.67
2018-02-15T06:42:50.357Z,23.90
2018-02-15T06:45:16.352Z,27.13
2018-02-15T06:47:42.317Z,27.30
2018-02-15T06:50:09.032Z,29.43
2018-02-15T06:52:36.511Z,29.30
2018-02-15T06:55:02.551Z,28.10
2018-02-15T06:57:29.291Z,26.60
2018-02-15T06:59:55.301Z,29.17
2018-02-15T07:02:21.247Z,30.00
2018-02-15T07:04:47.223Z,28.47
2018-02-15T07:07:13.173Z,29.37
2018-02-15T07:09:39.886Z,27.47
2018-02-15T07:12:05.871Z,29.07
2018-02-15T07:14:32.622Z,26.63
2018-02-15T07:16:58.604Z,33.13
2018-02-15T07:19:24.532Z,31.80
2018-02-15T07:21:50.517Z,27.53
2018-02-15T07:24:16.508Z,26.20
2018-02-15T07:26:42.499Z,26.23
2018-02-15T07:29:09.208Z,25.10
2018-02-15T07:31:35.171Z,24.13
2018-02-15T07:34:01.121Z,28.60
2018-02-15T07:36:27.907Z,27.47
2018-02-15T07:38:53.847Z,29.47
2018-02-15T07:41:19.828Z,30.40
2018-02-15T07:43:45.784Z,28.77
2018-02-15T07:46:12.550Z,28.50
2018-02-15T07:48:38.550Z,25.77
2018-02-15T07:51:04.543Z,27.67
2018-02-15T07:53:30.540Z,27.70
2018-02-15T07:55:57.244Z,28.00
2018-02-15T07:58:23.249Z,25.03
2018-02-15T08:00:49.232Z,23.70
2018-02-15T08:03:15.187Z,23.93
2018-02-15T08:05:41.919Z,22.30
2018-02-15T08:08:07.940Z,22.60
2018-02-15T08:10:33.955Z,24.37
2018-02-15T08:12:59.895Z,21.03
2018-02-15T08:15:25.845Z,21.43
2018-02-15T08:17:51.820Z,25.10
2018-02-15T08:20:17.765Z,25.10
2018-02-15T08:22:43.752Z,23.70
2018-02-15T08:25:09.728Z,25.37
2018-02-15T08:27:35.721Z,26.17
2018-02-15T08:30:01.715Z,23.47
2018-02-15T08:32:28.419Z,23.40
2018-02-15T08:34:54.395Z,24.93
2018-02-15T08:37:20.336Z,20.97
2018-02-15T08:39:46.305Z,23.97
2018-02-15T08:42:12.292Z,22.00
2018-02-15T08:44:38.386Z,23.10
2018-02-15T08:47:04.347Z,22.83
2018-02-15T08:49:30.320Z,25.13
2018-02-15T08:51:57.035Z,22.60
2018-02-15T08:54:22.984Z,22.93
2018-02-15T08:56:48.919Z,23.13
2018-02-15T08:59:14.892Z,22.33
2018-02-15T09:01:41.612Z,26.20
2018-02-15T09:04:07.599Z,23.00
2018-02-15T09:06:33.532Z,23.73
2018-02-15T09:08:59.625Z,24.23
2018-02-15T09:11:25.597Z,20.67
2018-02-15T09:13:52.279Z,24.63
2018-02-15T09:16:18.247Z,24.90
2018-02-15T09:18:44.229Z,22.77
2018-02-15T09:21:10.433Z,22.90
2018-02-15T09:23:37.143Z,24.20
2018-02-15T09:26:03.110Z,23.00
2018-02-15T09:28:29.152Z,25.30
2018-02-15T09:30:55.111Z,22.37
2018-02-15T09:33:21.810Z,21.47
2018-02-15T09:35:47.783Z,22.70
2018-02-15T09:38:13.762Z,23.10
2018-02-15T09:40:39.703Z,22.77
2018-02-15T09:43:05.684Z,27.37
2018-02-15T09:45:31.667Z,26.70
2018-02-15T09:47:57.642Z,23.90
2018-02-15T09:50:23.589Z,24.23
2018-02-15T09:52:49.678Z,24.77
2018-02-15T09:55:15.610Z,22.80
2018-02-15T09:57:41.584Z,22.27
2018-02-15T10:00:07.592Z,22.53
2018-02-15T10:02:33.563Z,21.70
2018-02-15T10:04:59.500Z,21.70
2018-02-15T10:07:25.470Z,24.50
2018-02-15T10:09:52.189Z,22.30
2018-02-15T10:12:18.169Z,23.17
2018-02-15T10:14:44.144Z,23.63
2018-02-15T10:17:10.124Z,24.23
2018-02-15T10:19:36.832Z,23.27
2018-02-15T10:22:02.768Z,23.60
2018-02-15T10:24:28.761Z,24.00
2018-02-15T10:26:55.480Z,21.90
2018-02-15T10:29:21.482Z,23.27
2018-02-15T10:31:47.451Z,23.53
2018-02-15T10:34:13.444Z,20.70
2018-02-15T10:36:39.427Z,22.93
2018-02-15T10:39:06.901Z,23.10
2018-02-15T10:41:32.856Z,19.70
2018-02-15T10:43:59.587Z,23.37
2018-02-15T10:46:25.673Z,22.87
2018-02-15T10:48:51.615Z,23.80
2018-02-15T10:51:17.591Z,23.27
2018-02-15T10:53:43.575Z,22.83
2018-02-15T10:56:09.544Z,24.47
2018-02-15T10:58:35.532Z,22.83
2018-02-15T11:01:21.279Z,23.20
2018-02-15T11:03:53.549Z,21.20
2018-02-15T11:06:19.504Z,21.17
2018-02-15T11:08:45.508Z,22.27
2018-02-15T11:11:11.498Z,22.43
2018-02-15T11:13:37.470Z,23.73
2018-02-15T11:16:04.156Z,20.80
2018-02-15T11:18:30.153Z,22.07
2018-02-15T11:20:56.112Z,22.10
2018-02-15T11:23:22.047Z,22.13
2018-02-15T11:25:48.023Z,22.23
2018-02-15T11:28:14.007Z,23.47
2018-02-15T11:30:39.973Z,20.00
2018-02-15T11:33:05.920Z,21.00
2018-02-15T11:35:31.887Z,21.97
2018-02-15T11:37:58.616Z,21.20
2018-02-15T11:40:24.563Z,22.07
2018-02-15T11:42:50.563Z,21.57
2018-02-15T11:45:16.518Z,22.23
2018-02-15T11:47:42.502Z,22.50
2018-02-15T11:50:08.467Z,22.90
2018-02-15T11:52:34.456Z,23.80
2018-02-15T11:55:01.191Z,23.40
2018-02-15T11:57:28.616Z,20.10
2018-02-15T11:59:54.607Z,21.53
2018-02-15T12:02:20.571Z,19.93
2018-02-15T12:04:47.304Z,20.50
2018-02-15T12:07:13.297Z,22.40
2018-02-15T12:09:39.299Z,21.20
2018-02-15T12:12:05.276Z,20.87
2018-02-15T12:14:31.223Z,23.70
2018-02-15T12:16:57.212Z,20.70
2018-02-15T12:19:23.167Z,22.40
2018-02-15T12:21:49.159Z,23.70
2018-02-15T12:24:15.890Z,18.27
2018-02-15T12:26:42.609Z,20.97
2018-02-15T12:29:08.633Z,22.20
2018-02-15T12:31:34.607Z,22.47
2018-02-15T12:34:00.551Z,22.73
2018-02-15T12:36:26.529Z,22.97
2018-02-15T12:38:52.468Z,22.37
2018-02-15T12:41:18.459Z,21.50
2018-02-15T12:43:44.441Z,22.80
2018-02-15T12:46:10.431Z,22.00
2018-02-15T12:48:36.404Z,21.77
2018-02-15T12:51:02.391Z,22.57
2018-02-15T12:53:28.339Z,22.30
2018-02-15T12:55:55.832Z,21.00
2018-02-15T12:58:21.771Z,21.90
2018-02-15T13:00:48.472Z,21.77
2018-02-15T13:03:14.479Z,23.73
2018-02-15T13:05:40.440Z,22.90
2018-02-15T13:08:06.441Z,21.33
2018-02-15T13:10:33.159Z,23.50
2018-02-15T13:13:11.764Z,22.10
2018-02-15T13:15:50.069Z,21.63
2018-02-15T13:18:16.579Z,23.10
2018-02-15T13:20:43.323Z,22.63
2018-02-15T13:23:10.181Z,22.70
2018-02-15T13:25:36.137Z,22.07
2018-02-15T13:28:15.213Z,21.87
2018-02-15T13:30:41.353Z,22.97
2018-02-15T13:33:07.314Z,21.80
2018-02-15T13:35:33.288Z,22.20
2018-02-15T13:38:00.010Z,23.10
2018-02-15T13:40:26.032Z,26.70
2018-02-15T13:42:51.971Z,23.00
2018-02-15T13:45:17.942Z,23.70
2018-02-15T13:47:43.967Z,27.27
2018-02-15T13:50:09.932Z,25.97
2018-02-15T13:52:36.656Z,25.43
2018-02-15T13:55:02.608Z,22.20
2018-02-15T13:57:29.326Z,23.83
2018-02-15T13:59:55.315Z,24.50
2018-02-15T14:02:22.009Z,23.30
2018-02-15T14:04:48.020Z,25.60
2018-02-15T14:07:14.009Z,21.83
2018-02-15T14:09:39.991Z,22.80
2018-02-15T14:12:05.979Z,24.13
2018-02-15T14:14:31.931Z,22.87
2018-02-15T14:16:58.623Z,23.50
2018-02-15T14:19:24.599Z,23.30
2018-02-15T14:21:50.549Z,23.90
2018-02-15T14:24:17.996Z,23.60
2018-02-15T14:26:44.045Z,24.37
2018-02-15T14:29:10.144Z,23.30
2018-02-15T14:31:36.109Z,26.00
2018-02-15T14:34:02.106Z,24.83
2018-02-15T14:36:28.097Z,24.80
2018-02-15T14:38:54.060Z,24.77
2018-02-15T14:41:20.800Z,25.80
2018-02-15T14:43:47.507Z,26.20
2018-02-15T14:46:13.493Z,27.93
2018-02-15T14:48:40.235Z,26.27
2018-02-15T14:51:06.205Z,26.20
2018-02-15T14:53:32.203Z,27.50
2018-02-15T14:55:58.960Z,26.23
2018-02-15T14:58:25.711Z,27.30
2018-02-15T15:00:51.715Z,28.23
2018-02-15T15:03:17.655Z,26.57
2018-02-15T15:05:43.655Z,27.70
2018-02-15T15:08:09.629Z,29.47
2018-02-15T15:10:35.571Z,30.23
2018-02-15T15:13:01.547Z,28.90
2018-02-15T15:15:28.253Z,29.47
2018-02-15T15:17:54.273Z,29.90
2018-02-15T15:20:20.327Z,29.17
2018-02-15T15:22:46.267Z,32.23
2018-02-15T15:25:12.281Z,29.83
2018-02-15T15:27:38.229Z,29.53
2018-02-15T15:30:04.230Z,29.97
2018-02-15T15:32:30.203Z,28.80
2018-02-15T15:34:56.210Z,29.03
2018-02-15T15:37:22.192Z,29.40
2018-02-15T15:39:48.145Z,30.13
2018-02-15T15:42:14.171Z,29.37
2018-02-15T15:44:40.251Z,30.00
2018-02-15T15:47:06.936Z,28.20
2018-02-15T15:49:32.940Z,27.77
2018-02-15T15:51:58.935Z,30.03
2018-02-15T15:54:24.971Z,29.80
2018-02-15T15:56:50.991Z,28.47
2018-02-15T15:59:17.012Z,30.40
2018-02-15T16:01:43.045Z,28.70
2018-02-15T16:04:09.027Z,31.40
2018-02-15T16:06:34.992Z,29.83
2018-02-15T16:09:01.008Z,26.80
2018-02-15T16:11:27.719Z,26.37
2018-02-15T16:13:53.671Z,26.43
2018-02-15T16:16:19.685Z,27.45
2018-02-15T16:18:45.716Z,27.03
2018-02-15T16:21:11.759Z,26.70
2018-02-15T16:23:37.719Z,28.70
2018-02-15T16:26:03.704Z,26.67
2018-02-15T16:28:29.635Z,25.73
2018-02-15T16:30:55.610Z,24.53
2018-02-15T16:33:21.562Z,26.70
2018-02-15T16:35:47.539Z,25.73
2018-02-15T16:38:14.227Z,26.17
2018-02-15T16:40:40.231Z,25.73
2018-02-15T16:43:06.243Z,26.27
2018-02-15T16:45:32.183Z,25.73
2018-02-15T16:47:58.915Z,24.87
2018-02-15T16:50:24.902Z,25.77
2018-02-15T16:52:50.846Z,25.73
2018-02-15T16:55:16.796Z,24.60
2018-02-15T16:57:42.835Z,25.23
2018-02-15T17:00:08.783Z,24.80
2018-02-15T17:02:34.775Z,22.50
2018-02-15T17:05:00.738Z,24.23
2018-02-15T17:07:26.719Z,25.47
2018-02-15T17:09:52.710Z,21.97
2018-02-15T17:12:18.665Z,22.63
2018-02-15T17:14:44.660Z,23.53
2018-02-15T17:17:10.680Z,20.07
2018-02-15T17:19:37.379Z,22.80
2018-02-15T17:22:03.364Z,20.40
2018-02-15T17:24:30.063Z,23.37
2018-02-15T17:26:56.040Z,21.30
2018-02-15T17:29:21.975Z,22.47
2018-02-15T17:31:47.911Z,23.50
2018-02-15T17:34:13.895Z,21.73
2018-02-15T17:36:39.889Z,21.37
2018-02-15T17:39:05.864Z,21.50
2018-02-15T17:41:31.799Z,20.13
2018-02-15T17:43:57.789Z,19.17
2018-02-15T17:46:23.738Z,21.50
2018-02-15T17:48:50.427Z,20.17
2018-02-15T17:51:16.384Z,19.30
2018-02-15T17:53:42.379Z,20.50
2018-02-15T17:56:09.046Z,19.30
2018-02-15T17:58:34.987Z,23.30
2018-02-15T18:01:00.943Z,20.70
2018-02-15T18:03:26.925Z,22.50
2018-02-15T18:05:53.596Z,20.13
2018-02-15T18:08:20.332Z,20.20
2018-02-15T18:10:47.056Z,20.97
2018-02-15T18:13:13.074Z,21.57
2018-02-15T18:15:39.024Z,20.87
2018-02-15T18:18:04.963Z,21.90
2018-02-15T18:20:30.939Z,20.87
2018-02-15T18:22:56.888Z,22.67
2018-02-15T18:25:22.863Z,22.27
2018-02-15T18:27:48.813Z,19.90
2018-02-15T18:30:14.815Z,21.23
2018-02-15T18:32:40.792Z,17.90
2018-02-15T18:35:06.750Z,21.07
2018-02-15T18:37:33.477Z,20.83
2018-02-15T18:39:59.428Z,19.77
2018-02-15T18:42:26.143Z,20.40
2018-02-15T18:44:52.086Z,20.70
2018-02-15T18:47:18.122Z,19.10
2018-02-15T18:49:44.057Z,20.63
2018-02-15T18:52:10.008Z,19.80
2018-02-15T18:54:35.984Z,19.10
2018-02-15T18:57:01.915Z,19.17
2018-02-15T18:59:27.888Z,19.33
2018-02-15T19:01:53.876Z,22.20
2018-02-15T19:04:20.556Z,18.97
2018-02-15T19:06:46.507Z,18.10
2018-02-15T19:09:12.532Z,19.27
2018-02-15T19:11:38.507Z,18.00
2018-02-15T19:14:04.503Z,18.17
2018-02-15T19:16:30.443Z,16.33
2018-02-15T19:18:56.395Z,19.30
2018-02-15T19:21:22.388Z,16.10
2018-02-15T19:23:49.076Z,15.83
2018-02-15T19:26:15.076Z,16.13
2018-02-15T19:28:41.064Z,15.80
2018-02-15T19:31:07.035Z,17.43
2018-02-15T19:33:33.719Z,17.90
2018-02-15T19:35:59.696Z,16.60
2018-02-15T19:38:25.641Z,16.77
2018-02-15T19:40:51.611Z,16.13
2018-02-15T19:43:17.551Z,16.80
2018-02-15T19:45:43.535Z,15.70
2018-02-15T19:48:09.525Z,16.27
2018-02-15T19:50:35.463Z,16.30
2018-02-15T19:53:01.414Z,15.03
2018-02-15T19:55:27.395Z,15.57
2018-02-15T19:57:54.107Z,14.43
2018-02-15T20:00:20.060Z,15.93
2018-02-15T20:02:46.066Z,15.07
2018-02-15T20:05:12.058Z,15.23
2018-02-15T20:07:38.018Z,15.20
2018-02-15T20:10:04.019Z,15.40
2018-02-15T20:12:29.959Z,14.60
2018-02-15T20:14:56.655Z,15.77
2018-02-15T20:17:22.639Z,16.63
2018-02-15T20:19:55.509Z,15.87
2018-02-15T20:22:21.475Z,15.37
2018-02-15T20:24:47.486Z,15.63
2018-02-15T20:27:19.737Z,16.60
2018-02-15T20:29:45.703Z,17.23
2018-02-15T20:32:11.719Z,15.67
2018-02-15T20:34:37.672Z,17.17
2018-02-15T20:37:03.617Z,16.27
2018-02-15T20:39:35.831Z,17.10
2018-02-15T20:42:02.517Z,15.83
2018-02-15T20:44:28.491Z,15.63
2018-02-15T20:46:54.455Z,16.40
2018-02-15T20:49:27.248Z,14.13
2018-02-15T20:52:00.331Z,14.40
2018-02-15T20:57:25.960Z,16.50
2018-02-15T20:59:51.943Z,15.20
2018-02-15T21:02:17.883Z,13.50
2018-02-15T21:04:43.848Z,16.67
2018-02-15T21:07:09.803Z,15.27
2018-02-15T21:09:35.816Z,15.17
2018-02-15T21:12:01.756Z,15.40
2018-02-15T21:14:27.735Z,16.23
2018-02-15T21:16:53.676Z,15.67
2018-02-15T21:19:19.652Z,16.10
2018-02-15T21:21:46.340Z,16.33
2018-02-15T21:24:12.374Z,13.70
2018-02-15T21:26:38.316Z,14.30
2018-02-15T21:29:04.265Z,16.20
2018-02-15T21:31:30.203Z,15.80
2018-02-15T21:33:56.173Z,16.40
2018-02-15T21:36:22.843Z,15.13
2018-02-15T21:38:48.768Z,15.63
2018-02-15T21:41:15.510Z,15.00
2018-02-15T21:43:42.219Z,15.40
2018-02-15T21:46:08.238Z,15.50
2018-02-15T21:48:34.172Z,15.87
2018-02-15T21:51:00.152Z,13.73
2018-02-15T21:53:26.092Z,15.40
2018-02-15T21:55:52.089Z,17.03
2018-02-15T21:58:18.060Z,14.80
2018-02-15T22:00:45.510Z,15.27
2018-02-15T22:03:11.471Z,15.17
2018-02-15T22:05:38.188Z,15.27
2018-02-15T22:08:04.124Z,14.03
2018-02-15T22:10:30.088Z,16.43
2018-02-15T22:12:56.036Z,15.80
2018-02-15T22:15:22.008Z,14.80
2018-02-15T22:17:47.975Z,16.57
2018-02-15T22:20:14.038Z,14.60
2018-02-15T22:22:39.976Z,16.07
2018-02-15T22:25:05.964Z,16.87
2018-02-15T22:27:31.911Z,16.17
2018-02-15T22:29:57.891Z,17.40
2018-02-15T22:32:24.615Z,17.27
2018-02-15T22:34:50.551Z,14.93
2018-02-15T22:37:16.489Z,15.20
2018-02-15T22:39:42.504Z,13.60
2018-02-15T22:42:08.512Z,16.60
2018-02-15T22:44:34.453Z,15.13
2018-02-15T22:47:00.416Z,14.47
2018-02-15T22:49:26.399Z,16.40
2018-02-15T22:51:53.099Z,16.87
2018-02-15T22:54:19.063Z,16.10
2018-02-15T22:56:45.020Z,16.97
2018-02-15T22:59:11.765Z,16.20
2018-02-15T23:01:38.451Z,17.13
2018-02-15T23:04:04.385Z,16.27
2018-02-15T23:06:30.348Z,16.00
2018-02-15T23:08:56.313Z,17.07
2018-02-15T23:11:22.261Z,18.10
2018-02-15T23:13:48.963Z,17.60
2018-02-15T23:16:14.939Z,18.17
2018-02-15T23:18:40.980Z,17.13
2018-02-15T23:21:06.924Z,17.50
2018-02-15T23:23:33.688Z,17.67
2018-02-15T23:26:00.431Z,15.33
2018-02-15T23:28:27.143Z,18.17
2018-02-15T23:30:53.120Z,16.20
2018-02-15T23:33:19.808Z,16.47
2018-02-15T23:35:45.931Z,17.20
2018-02-15T23:38:11.898Z,18.10
2018-02-15T23:40:37.835Z,18.73
2018-02-15T23:43:03.799Z,17.37
2018-02-15T23:45:29.752Z,18.00
2018-02-15T23:47:56.459Z,16.57
2018-02-15T23:50:22.430Z,18.33
2018-02-15T23:52:48.383Z,17.60
2018-02-15T23:55:15.103Z,17.40
2018-02-15T23:57:41.077Z,19.07
